Time;durP1;ratioP1;P1;durP2;ratioP2;P2;SDS_P1;SDS_P2;PMS_P1;PMS_P2;Temp;Humidity;BMP_temperature;BMP_pressure;BME280_temperature;BME280_humidity;BME280_pressure;Samples;Min_cycle;Max_cycle;Signal;HPM_P1;HPM_P2
2022/11/19 00:00:53;;;;;;;22.13;13.87;;;6.90;94.10;;;;;;4999628;28;20438;-60
2022/11/19 00:03:20;;;;;;;18.23;13.77;;;6.90;94.20;;;;;;5015100;28;20196;-60
2022/11/19 00:05:48;;;;;;;17.53;12.43;;;6.90;94.20;;;;;;4999818;28;20318;-60
2022/11/19 00:08:18;;;;;;;20.67;13.63;;;7.00;94.30;;;;;;5015478;28;20426;-60
2022/11/19 00:10:45;;;;;;;18.27;12.50;;;7.00;94.30;;;;;;5015779;28;20418;-60
2022/11/19 00:13:12;;;;;;;17.83;12.37;;;7.00;94.30;;;;;;5015679;28;20568;-59
2022/11/19 00:15:38;;;;;;;21.10;13.27;;;6.90;94.30;;;;;;5000111;28;20461;-59
2022/11/19 00:18:05;;;;;;;18.53;12.93;;;7.00;94.40;;;;;;5015499;28;20458;-59
2022/11/19 00:20:32;;;;;;;19.07;12.90;;;7.00;94.40;;;;;;5015182;28;20498;-59
2022/11/19 00:22:59;;;;;;;18.67;13.17;;;7.00;94.40;;;;;;4999330;28;20427;-59
2022/11/19 00:25:27;;;;;;;18.60;13.07;;;6.90;94.40;;;;;;5015238;28;20431;-59
2022/11/19 00:27:54;;;;;;;17.50;12.30;;;6.90;94.40;;;;;;5015255;28;20427;-59
2022/11/19 00:30:20;;;;;;;19.00;12.30;;;6.90;94.40;;;;;;4999238;28;20443;-59
2022/11/19 00:32:46;;;;;;;20.17;13.50;;;7.00;94.40;;;;;;5000743;28;20490;-59
2022/11/19 00:35:12;;;;;;;20.03;13.27;;;6.90;94.50;;;;;;4999147;28;20295;-60
2022/11/19 00:37:38;;;;;;;16.07;12.33;;;7.00;94.40;;;;;;5014598;28;20211;-60
2022/11/19 00:40:06;;;;;;;19.20;12.93;;;6.90;94.40;;;;;;5015144;28;20492;-60
2022/11/19 00:42:33;;;;;;;20.33;12.60;;;6.90;94.40;;;;;;5022908;28;20521;-60
2022/11/19 00:44:58;;;;;;;17.97;11.93;;;6.90;94.40;;;;;;4998907;28;20434;-60
2022/11/19 00:47:24;;;;;;;18.53;12.37;;;6.90;94.40;;;;;;4999035;28;20501;-59
2022/11/19 00:49:50;;;;;;;21.13;12.33;;;6.90;94.50;;;;;;4999957;28;20194;-59
2022/11/19 00:52:16;;;;;;;17.00;12.60;;;6.90;94.40;;;;;;4997667;28;20192;-59
2022/11/19 00:54:42;;;;;;;17.40;11.90;;;6.90;94.40;;;;;;4998584;28;20191;-59
2022/11/19 00:57:07;;;;;;;18.57;12.47;;;6.80;94.40;;;;;;5019314;28;20200;-60
2022/11/19 00:59:33;;;;;;;16.33;11.47;;;6.80;94.50;;;;;;5015224;28;20666;-60
2022/11/19 01:01:59;;;;;;;19.10;13.10;;;6.80;94.50;;;;;;4998810;28;20199;-60
2022/11/19 01:04:24;;;;;;;16.60;12.23;;;6.80;94.50;;;;;;5016548;28;20385;-60
2022/11/19 01:06:50;;;;;;;17.83;12.73;;;6.80;94.50;;;;;;5014984;28;20223;-59
2022/11/19 01:09:16;;;;;;;19.43;12.43;;;6.80;94.50;;;;;;5031367;28;20545;-59
2022/11/19 01:11:41;;;;;;;17.23;12.20;;;6.80;94.50;;;;;;5003930;28;20183;-59
2022/11/19 01:14:07;;;;;;;18.00;12.00;;;6.80;94.50;;;;;;4998460;28;20195;-59
2022/11/19 01:16:38;;;;;;;19.23;11.97;;;6.80;94.50;;;;;;5005175;28;20191;-59
2022/11/19 01:19:06;;;;;;;18.27;11.47;;;6.80;94.60;;;;;;5011602;28;20239;-59
2022/11/19 01:21:33;;;;;;;16.47;11.60;;;6.80;94.60;;;;;;5010419;28;20440;-59
2022/11/19 01:24:00;;;;;;;19.90;13.57;;;6.80;94.60;;;;;;5026802;28;20472;-60
2022/11/19 01:26:26;;;;;;;19.57;13.00;;;6.80;94.60;;;;;;5032605;28;20507;-60
2022/11/19 01:28:52;;;;;;;20.73;12.70;;;6.70;94.60;;;;;;5030662;28;20963;-60
2022/11/19 01:31:21;;;;;;;16.17;11.77;;;6.80;94.60;;;;;;5014386;28;20440;-60
2022/11/19 01:33:47;;;;;;;19.73;13.17;;;6.80;94.60;;;;;;4998534;28;20466;-60
2022/11/19 01:36:16;;;;;;;19.67;13.37;;;6.80;94.70;;;;;;5014711;28;20485;-60
2022/11/19 01:38:41;;;;;;;19.30;13.40;;;6.80;94.70;;;;;;5014343;28;20845;-59
2022/11/19 01:41:08;;;;;;;19.43;13.60;;;6.70;94.60;;;;;;5030564;28;20442;-59
2022/11/19 01:43:41;;;;;;;20.43;13.43;;;6.70;94.40;;;;;;4997891;28;20223;-59
2022/11/19 01:46:08;;;;;;;18.77;12.40;;;6.70;94.50;;;;;;5014028;28;20470;-59
2022/11/19 01:48:37;;;;;;;19.70;13.57;;;6.70;94.50;;;;;;5013392;28;20433;-59
2022/11/19 01:51:12;;;;;;;18.70;11.77;;;6.70;94.50;;;;;;5030962;28;20445;-59
2022/11/19 01:53:38;;;;;;;22.53;14.47;;;6.80;94.50;;;;;;5013803;28;20504;-59
2022/11/19 01:56:07;;;;;;;20.90;14.73;;;6.80;94.50;;;;;;5014284;28;20434;-59
2022/11/19 01:59:01;;;;;;;21.40;14.83;;;6.70;94.30;;;;;;4997613;28;20443;-59
2022/11/19 02:01:28;;;;;;;20.57;14.17;;;6.70;94.30;;;;;;5009857;28;20430;-59
2022/11/19 02:03:54;;;;;;;17.60;13.57;;;6.70;94.10;;;;;;5011528;28;20490;-59
2022/11/19 02:06:20;;;;;;;18.57;13.03;;;6.60;93.70;;;;;;4993808;28;20471;-59
2022/11/19 02:08:49;;;;;;;18.03;13.13;;;6.50;93.40;;;;;;5010765;28;20438;-59
2022/11/19 02:11:51;;;;;;;17.93;12.70;;;6.60;93.70;;;;;;5013843;28;20435;-59
2022/11/19 02:14:38;;;;;;;21.83;13.67;;;6.60;93.80;;;;;;5009668;28;20423;-59
2022/11/19 02:17:29;;;;;;;17.10;12.23;;;6.70;93.90;;;;;;5026751;28;20496;-59
2022/11/19 02:20:32;;;;;;;20.50;13.27;;;6.60;94.00;;;;;;5013300;28;20490;-59
2022/11/19 02:23:22;;;;;;;15.93;12.23;;;6.70;94.10;;;;;;5023798;28;20430;-59
2022/11/19 02:26:28;;;;;;;20.03;12.80;;;6.70;94.10;;;;;;5009844;28;20944;-59
2022/11/19 02:29:27;;;;;;;21.67;14.40;;;6.70;94.20;;;;;;5029594;28;20430;-60
2022/11/19 02:32:22;;;;;;;18.70;12.23;;;6.70;94.20;;;;;;5029776;28;20921;-60
2022/11/19 02:35:04;;;;;;;20.47;14.13;;;6.70;94.20;;;;;;5013459;28;20533;-59
2022/11/19 02:37:41;;;;;;;15.03;11.97;;;6.70;94.20;;;;;;5013113;28;20426;-59
2022/11/19 02:40:16;;;;;;;15.80;11.47;;;6.70;94.20;;;;;;5012466;28;20430;-59
2022/11/19 02:42:49;;;;;;;19.87;12.87;;;6.70;94.20;;;;;;5029648;28;20441;-59
2022/11/19 02:45:25;;;;;;;18.40;12.57;;;6.70;94.20;;;;;;5012666;28;20441;-59
2022/11/19 02:47:55;;;;;;;19.27;12.13;;;6.70;94.20;;;;;;5029842;28;20477;-59
2022/11/19 02:50:30;;;;;;;18.97;12.33;;;6.70;94.20;;;;;;5029828;28;20422;-59
2022/11/19 02:52:57;;;;;;;21.57;12.50;;;6.70;94.20;;;;;;5029251;28;20434;-59
2022/11/19 02:55:23;;;;;;;20.10;12.03;;;6.70;94.30;;;;;;4996559;28;20434;-59
2022/11/19 02:57:58;;;;;;;19.00;12.97;;;6.70;94.30;;;;;;5000806;28;20483;-59
2022/11/19 03:06:10;;;;;;;18.50;12.20;;;6.60;94.20;;;;;;5013997;28;20570;-59
2022/11/19 03:08:36;;;;;;;17.90;12.40;;;6.60;94.20;;;;;;5027561;28;20441;-59
2022/11/19 03:11:11;;;;;;;17.03;12.20;;;6.60;94.20;;;;;;4996475;28;20411;-59
2022/11/19 03:17:05;;;;;;;13.93;10.10;;;6.60;94.20;;;;;;5013641;28;20440;-59
2022/11/19 03:19:55;;;;;;;14.23;9.97;;;6.50;94.10;;;;;;5011780;28;20537;-59
2022/11/19 03:22:27;;;;;;;15.13;10.77;;;6.50;94.10;;;;;;5015697;28;20424;-59
2022/11/19 03:25:01;;;;;;;13.27;10.50;;;6.50;94.00;;;;;;5026236;28;20433;-59
2022/11/19 03:27:38;;;;;;;15.10;10.33;;;6.50;94.00;;;;;;5012390;28;20462;-59
2022/11/19 03:30:05;;;;;;;17.40;9.90;;;6.50;94.10;;;;;;5012117;28;20442;-59
2022/11/19 03:32:44;;;;;;;16.50;10.13;;;6.40;94.10;;;;;;5012714;28;20420;-59
2022/11/19 03:35:19;;;;;;;16.63;11.07;;;6.40;94.10;;;;;;5014416;28;20461;-59
2022/11/19 03:37:49;;;;;;;12.50;9.07;;;6.40;94.10;;;;;;5029317;28;20472;-59
2022/11/19 03:40:17;;;;;;;14.73;11.10;;;6.40;94.00;;;;;;5029598;28;20481;-59
2022/11/19 03:42:44;;;;;;;17.73;12.33;;;6.40;93.90;;;;;;5013056;28;20431;-59
2022/11/19 03:45:18;;;;;;;16.83;12.20;;;6.30;93.30;;;;;;4996974;28;20926;-59
2022/11/19 03:47:46;;;;;;;16.33;11.47;;;6.30;93.60;;;;;;5028315;28;20462;-59
2022/11/19 03:50:18;;;;;;;19.20;11.70;;;6.30;93.70;;;;;;5012874;28;20429;-59
2022/11/19 03:52:44;;;;;;;17.10;12.03;;;6.30;93.80;;;;;;5015508;28;20434;-59
2022/11/19 03:55:10;;;;;;;18.03;12.33;;;6.30;93.80;;;;;;5016165;28;20435;-59
2022/11/19 03:57:36;;;;;;;19.67;12.33;;;6.30;93.90;;;;;;5000097;28;20188;-59
2022/11/19 04:00:02;;;;;;;15.23;11.07;;;6.30;93.90;;;;;;4999859;28;20415;-59
2022/11/19 04:02:28;;;;;;;18.03;12.50;;;6.30;93.90;;;;;;5015734;28;20271;-59
2022/11/19 04:04:54;;;;;;;16.77;10.77;;;6.40;93.90;;;;;;5015914;28;20502;-59
2022/11/19 04:07:21;;;;;;;17.30;11.70;;;6.40;93.90;;;;;;4999364;28;20234;-59
2022/11/19 04:09:48;;;;;;;17.00;11.43;;;6.30;93.90;;;;;;5015982;28;20187;-59
2022/11/19 04:12:19;;;;;;;17.80;11.40;;;6.30;93.70;;;;;;5016021;28;20522;-59
2022/11/19 04:14:46;;;;;;;16.77;10.17;;;6.30;93.70;;;;;;5031899;28;20505;-58
2022/11/19 04:17:12;;;;;;;17.00;10.60;;;6.30;93.70;;;;;;5015811;28;20445;-58
2022/11/19 04:19:37;;;;;;;15.57;10.70;;;6.40;93.80;;;;;;4999135;28;20485;-58
2022/11/19 04:22:03;;;;;;;15.23;10.60;;;6.40;93.80;;;;;;5015759;28;20278;-58
2022/11/19 04:24:29;;;;;;;17.23;10.93;;;6.40;93.80;;;;;;4999430;28;20213;-58
2022/11/19 04:26:54;;;;;;;15.60;11.10;;;6.40;93.90;;;;;;5015566;28;20203;-58
2022/11/19 04:29:20;;;;;;;15.20;9.97;;;6.30;93.90;;;;;;4998990;28;20187;-58
2022/11/19 04:31:46;;;;;;;15.40;9.60;;;6.40;93.80;;;;;;5015814;28;20192;-58
2022/11/19 04:34:12;;;;;;;12.90;9.47;;;6.30;93.70;;;;;;4999426;28;20192;-58
2022/11/19 04:36:40;;;;;;;13.73;9.47;;;6.30;93.70;;;;;;5001893;28;20192;-58
2022/11/19 04:39:07;;;;;;;15.03;8.97;;;6.30;93.70;;;;;;5015052;28;20187;-58
2022/11/19 04:41:33;;;;;;;12.67;9.03;;;6.30;93.60;;;;;;5015066;28;20433;-58
2022/11/19 04:43:59;;;;;;;14.33;10.50;;;6.30;93.70;;;;;;5031424;28;20944;-58
2022/11/19 04:46:25;;;;;;;13.30;9.23;;;6.30;93.60;;;;;;4991234;28;20463;-58
2022/11/19 04:48:51;;;;;;;15.27;9.60;;;6.30;93.70;;;;;;4997367;28;20196;-58
2022/11/19 04:51:16;;;;;;;13.73;9.97;;;6.20;93.70;;;;;;4999311;28;20207;-58
2022/11/19 04:53:42;;;;;;;11.23;8.20;;;6.30;93.70;;;;;;4996628;28;20195;-58
2022/11/19 04:56:08;;;;;;;12.13;8.97;;;6.20;93.70;;;;;;5014808;28;20190;-58
2022/11/19 04:58:34;;;;;;;11.97;7.83;;;6.30;93.70;;;;;;4998793;28;20222;-58
2022/11/19 05:01:00;;;;;;;14.10;9.00;;;6.20;93.70;;;;;;5004389;28;20262;-58
2022/11/19 05:03:26;;;;;;;12.40;8.97;;;6.20;93.70;;;;;;4998298;28;20467;-58
2022/11/19 05:05:52;;;;;;;15.37;9.90;;;6.20;93.70;;;;;;5012075;28;20215;-58
2022/11/19 05:08:17;;;;;;;12.17;8.93;;;6.20;93.70;;;;;;4998979;28;20187;-58
2022/11/19 05:10:43;;;;;;;14.27;9.73;;;6.10;93.30;;;;;;5014664;28;20438;-58
2022/11/19 05:13:09;;;;;;;15.17;9.10;;;6.20;93.40;;;;;;4998162;28;20279;-58
2022/11/19 05:15:35;;;;;;;14.07;8.73;;;6.10;93.40;;;;;;5001109;28;20533;-58
2022/11/19 05:18:01;;;;;;;17.87;10.17;;;6.10;93.40;;;;;;5005933;28;20190;-58
2022/11/19 05:20:27;;;;;;;11.87;10.00;;;6.10;93.30;;;;;;5014265;28;20238;-58
2022/11/19 05:22:52;;;;;;;13.83;9.87;;;6.10;93.00;;;;;;5014257;28;20191;-58
2022/11/19 05:25:18;;;;;;;13.53;9.30;;;6.00;92.40;;;;;;5001516;28;20184;-58
2022/11/19 05:27:44;;;;;;;13.00;9.60;;;6.10;92.70;;;;;;4996741;28;20214;-58
2022/11/19 05:30:10;;;;;;;16.13;9.97;;;6.10;92.90;;;;;;5031142;28;20222;-58
2022/11/19 05:32:36;;;;;;;13.90;9.87;;;6.10;92.90;;;;;;5014426;28;20306;-58
2022/11/19 05:35:03;;;;;;;13.53;9.33;;;6.20;93.00;;;;;;4994346;28;20521;-58
2022/11/19 05:37:29;;;;;;;13.37;9.97;;;6.20;93.00;;;;;;5013538;28;20195;-58
2022/11/19 05:39:54;;;;;;;15.03;8.87;;;6.20;93.00;;;;;;5010155;28;20434;-58
2022/11/19 05:42:20;;;;;;;14.83;9.43;;;6.20;93.10;;;;;;5013764;28;20198;-58
2022/11/19 05:44:46;;;;;;;12.43;8.53;;;6.20;93.10;;;;;;5024881;28;20185;-58
2022/11/19 05:47:13;;;;;;;11.57;8.37;;;6.20;92.90;;;;;;5013086;28;20210;-58
2022/11/19 05:49:39;;;;;;;9.30;7.40;;;6.20;92.70;;;;;;4997593;28;20191;-58
2022/11/19 05:52:04;;;;;;;11.33;8.50;;;6.20;92.70;;;;;;4997016;28;20427;-58
2022/11/19 05:54:30;;;;;;;12.00;8.50;;;6.10;92.70;;;;;;4997435;28;20218;-58
2022/11/19 05:56:56;;;;;;;12.07;8.20;;;6.10;92.80;;;;;;5000253;28;20195;-59
2022/11/19 05:59:21;;;;;;;11.70;8.10;;;6.20;92.80;;;;;;5013138;28;20184;-59
2022/11/19 06:01:47;;;;;;;12.90;9.53;;;6.20;92.80;;;;;;5013962;28;20699;-59
2022/11/19 06:04:13;;;;;;;13.33;8.97;;;6.20;92.70;;;;;;4997387;28;20191;-59
2022/11/19 06:06:38;;;;;;;11.50;8.37;;;6.20;92.80;;;;;;4997122;28;20231;-59
2022/11/19 06:09:04;;;;;;;13.73;8.73;;;6.20;92.70;;;;;;4997369;28;20191;-59
2022/11/19 06:11:51;;;;;;;11.77;8.77;;;6.20;92.60;;;;;;4996732;28;20246;-58
2022/11/19 06:14:20;;;;;;;14.07;9.27;;;6.20;92.40;;;;;;5006125;28;20658;-58
2022/11/19 06:16:50;;;;;;;12.87;9.23;;;6.20;92.50;;;;;;5013420;28;20434;-58
2022/11/19 06:19:17;;;;;;;13.87;9.67;;;6.20;92.50;;;;;;5013095;28;20528;-59
2022/11/19 06:21:43;;;;;;;9.97;8.53;;;6.30;92.50;;;;;;5029664;28;20445;-58
2022/11/19 06:24:09;;;;;;;13.83;9.80;;;6.30;92.60;;;;;;4998240;28;20429;-58
2022/11/19 06:26:34;;;;;;;13.23;9.70;;;6.30;92.60;;;;;;5013066;28;20298;-58
2022/11/19 06:29:00;;;;;;;14.37;9.53;;;6.30;92.60;;;;;;5013627;28;20192;-58
2022/11/19 06:31:26;;;;;;;13.80;8.77;;;6.30;92.40;;;;;;5006681;28;20202;-59
2022/11/19 06:33:54;;;;;;;12.13;9.27;;;6.30;92.50;;;;;;5013541;28;20191;-59
2022/11/19 06:36:21;;;;;;;10.63;8.77;;;6.40;92.60;;;;;;5045857;28;20192;-59
2022/11/19 06:38:47;;;;;;;14.57;9.20;;;6.40;92.60;;;;;;5012937;28;20445;-59
2022/11/19 06:41:12;;;;;;;11.60;8.70;;;6.40;92.60;;;;;;4997682;28;20453;-59
2022/11/19 06:43:38;;;;;;;11.47;8.37;;;6.50;92.50;;;;;;5017921;28;20198;-59
2022/11/19 06:46:04;;;;;;;14.13;10.23;;;6.50;92.60;;;;;;4998332;28;20216;-59
2022/11/19 06:48:30;;;;;;;11.60;8.93;;;6.50;92.40;;;;;;4996493;28;20194;-59
2022/11/19 06:50:55;;;;;;;13.03;9.27;;;6.50;92.30;;;;;;4996625;28;20547;-59
2022/11/19 06:53:21;;;;;;;14.83;10.20;;;6.50;92.20;;;;;;5040511;28;20205;-59
2022/11/19 06:55:47;;;;;;;13.07;9.33;;;6.50;92.20;;;;;;4996515;28;20230;-59
2022/11/19 06:58:16;;;;;;;13.60;9.73;;;6.50;91.60;;;;;;5000679;28;20184;-59
2022/11/19 07:00:41;;;;;;;12.83;9.67;;;6.50;91.90;;;;;;5024360;28;20191;-59
2022/11/19 07:03:07;;;;;;;16.77;9.73;;;6.60;92.00;;;;;;5002954;28;20534;-59
2022/11/19 07:05:33;;;;;;;17.37;10.97;;;6.60;92.00;;;;;;4997443;28;20182;-59
2022/11/19 07:07:59;;;;;;;11.63;9.53;;;6.60;91.90;;;;;;5000745;28;20435;-59
2022/11/19 07:10:24;;;;;;;11.83;8.73;;;6.60;92.00;;;;;;5012301;28;20211;-59
2022/11/19 07:12:50;;;;;;;14.07;10.27;;;6.70;92.00;;;;;;4996315;28;20188;-59
2022/11/19 07:15:16;;;;;;;15.83;11.00;;;6.60;90.70;;;;;;5008484;28;20187;-59
2022/11/19 07:17:41;;;;;;;16.37;12.00;;;6.60;90.60;;;;;;5014165;28;20241;-59
2022/11/19 07:20:08;;;;;;;16.47;11.40;;;6.70;90.60;;;;;;5012633;28;20266;-59
2022/11/19 07:22:33;;;;;;;17.17;12.50;;;6.60;90.20;;;;;;5013211;28;20200;-59
2022/11/19 07:24:59;;;;;;;17.13;11.40;;;6.70;90.40;;;;;;4996625;28;20471;-59
2022/11/19 07:27:25;;;;;;;17.10;11.27;;;6.80;90.80;;;;;;5000046;28;20211;-59
2022/11/19 07:29:50;;;;;;;17.53;10.97;;;6.80;90.90;;;;;;4998056;28;20226;-59
2022/11/19 07:32:16;;;;;;;16.63;11.97;;;6.90;91.00;;;;;;5019926;28;20188;-59
2022/11/19 07:34:42;;;;;;;19.33;12.00;;;6.90;91.00;;;;;;5012664;28;20188;-59
2022/11/19 07:37:07;;;;;;;15.30;11.53;;;6.90;90.10;;;;;;4999866;28;20187;-59
2022/11/19 07:39:33;;;;;;;17.23;11.43;;;6.80;88.40;;;;;;5002478;28;20195;-59
2022/11/19 07:44:43;;;;;;;18.00;12.73;;;6.80;88.00;;;;;;5016851;28;20198;-59
2022/11/19 07:47:09;;;;;;;19.00;12.90;;;6.70;88.30;;;;;;5016109;28;20458;-59
2022/11/19 07:49:35;;;;;;;15.87;12.53;;;6.80;88.90;;;;;;5005000;28;20184;-60
2022/11/19 07:52:00;;;;;;;18.63;14.07;;;6.80;88.70;;;;;;4998459;28;20184;-60
2022/11/19 07:54:26;;;;;;;19.67;12.60;;;6.80;88.40;;;;;;5016420;28;20195;-59
2022/11/19 07:56:52;;;;;;;21.03;13.20;;;6.70;88.20;;;;;;5016133;28;20207;-59
2022/11/19 07:59:18;;;;;;;18.03;12.83;;;6.70;88.60;;;;;;5012263;28;20181;-59
2022/11/19 08:01:43;;;;;;;17.17;12.43;;;6.70;88.90;;;;;;4994895;28;20222;-59
2022/11/19 08:04:09;;;;;;;20.27;13.47;;;6.80;88.90;;;;;;5005183;28;20198;-58
2022/11/19 08:06:35;;;;;;;18.20;12.73;;;6.60;87.90;;;;;;5000555;28;20223;-58
2022/11/19 08:09:02;;;;;;;21.13;14.00;;;6.60;88.40;;;;;;4998889;28;20439;-60
2022/11/19 08:11:29;;;;;;;24.03;13.60;;;6.60;88.60;;;;;;5019440;28;20183;-58
2022/11/19 08:13:54;;;;;;;19.87;13.60;;;6.60;88.60;;;;;;5015448;28;20435;-59
2022/11/19 08:19:14;;;;;;;20.87;13.63;;;6.50;88.20;;;;;;4793268;28;20889;-60
2022/11/19 08:21:44;;;;;;;22.10;13.87;;;6.50;88.00;;;;;;4464560;28;20438;-62
2022/11/19 08:24:10;;;;;;;20.53;13.77;;;6.40;87.70;;;;;;5014797;28;20423;-62
2022/11/19 08:26:37;;;;;;;20.60;13.17;;;6.40;87.90;;;;;;4996059;28;20501;-62
2022/11/19 08:29:04;;;;;;;21.00;14.10;;;6.30;88.00;;;;;;4998771;28;20437;-62
2022/11/19 08:31:30;;;;;;;21.53;14.27;;;6.30;87.60;;;;;;5014140;28;20530;-62
2022/11/19 08:33:56;;;;;;;23.17;15.33;;;6.30;87.80;;;;;;4998763;28;20450;-62
2022/11/19 08:36:22;;;;;;;27.30;16.93;;;6.10;86.50;;;;;;4995673;28;20196;-62
2022/11/19 08:38:47;;;;;;;24.43;15.57;;;6.00;86.70;;;;;;5014025;28;20193;-62
2022/11/19 08:44:01;;;;;;;26.63;16.73;;;5.90;87.20;;;;;;5015203;28;20241;-62
2022/11/19 08:46:27;;;;;;;26.73;16.60;;;5.80;87.00;;;;;;5033282;28;20458;-62
2022/11/19 08:48:52;;;;;;;25.97;16.27;;;5.80;87.10;;;;;;5003526;28;20435;-62
2022/11/19 08:51:18;;;;;;;25.20;17.37;;;5.70;86.60;;;;;;5025497;28;20179;-62
2022/11/19 08:53:44;;;;;;;29.60;17.10;;;5.70;86.90;;;;;;5014361;28;20278;-62
2022/11/19 08:56:10;;;;;;;28.93;17.23;;;5.70;87.10;;;;;;5021628;28;20593;-62
2022/11/19 08:58:35;;;;;;;27.50;16.13;;;5.80;87.30;;;;;;4998296;28;20279;-62
2022/11/19 09:01:12;;;;;;;22.90;15.33;;;5.70;87.20;;;;;;5001908;28;20250;-62
2022/11/19 09:03:37;;;;;;;27.00;16.20;;;5.70;87.20;;;;;;5009159;28;20210;-61
2022/11/19 09:06:03;;;;;;;26.20;16.23;;;5.70;87.30;;;;;;4997800;28;20466;-62
2022/11/19 09:08:29;;;;;;;28.23;16.77;;;5.70;86.80;;;;;;5003353;28;20187;-62
2022/11/19 09:10:55;;;;;;;25.80;15.53;;;5.60;86.80;;;;;;5019181;28;20187;-62
2022/11/19 09:13:21;;;;;;;23.27;15.20;;;5.60;86.70;;;;;;4994575;28;21007;-62
2022/11/19 09:15:48;;;;;;;27.30;16.70;;;5.70;87.00;;;;;;4997858;28;20199;-63
2022/11/19 09:18:13;;;;;;;29.03;16.30;;;5.70;86.70;;;;;;5014102;28;20198;-63
2022/11/19 09:20:39;;;;;;;23.03;15.07;;;5.70;86.80;;;;;;4952130;28;20466;-61
2022/11/19 09:23:05;;;;;;;26.77;15.60;;;5.70;87.00;;;;;;5013442;28;20195;-62
2022/11/19 09:25:31;;;;;;;29.23;17.23;;;5.80;87.20;;;;;;5013855;28;20190;-62
2022/11/19 09:27:57;;;;;;;30.37;18.60;;;5.80;87.10;;;;;;5005493;28;20674;-63
2022/11/19 09:30:23;;;;;;;27.53;17.20;;;5.80;86.70;;;;;;4746171;28;20441;-62
2022/11/19 09:32:48;;;;;;;30.40;17.17;;;5.70;86.50;;;;;;5013483;28;20194;-62
2022/11/19 09:35:14;;;;;;;28.83;17.03;;;5.70;86.70;;;;;;4993904;28;20184;-61
2022/11/19 09:37:40;;;;;;;32.30;18.30;;;5.60;86.90;;;;;;5010693;28;20187;-60
2022/11/19 09:40:08;;;;;;;27.80;17.43;;;5.60;86.80;;;;;;5007747;28;20195;-61
2022/11/19 09:42:45;;;;;;;29.33;17.47;;;5.60;87.20;;;;;;5012009;28;20282;-61
2022/11/19 09:45:45;;;;;;;31.47;17.97;;;5.50;87.50;;;;;;5010920;28;20453;-61
2022/11/19 09:48:28;;;;;;;27.37;17.60;;;5.60;87.70;;;;;;5012351;28;20533;-61
2022/11/19 09:51:12;;;;;;;31.00;18.03;;;5.50;87.90;;;;;;5027627;28;20441;-61
2022/11/19 09:53:56;;;;;;;27.37;17.00;;;5.40;87.60;;;;;;5011676;28;20430;-61
2022/11/19 09:56:29;;;;;;;28.53;17.67;;;5.30;87.60;;;;;;5012795;28;20433;-61
2022/11/19 09:58:56;;;;;;;28.97;16.97;;;5.30;88.00;;;;;;5012837;28;20496;-61
2022/11/19 10:01:22;;;;;;;28.87;16.00;;;5.20;88.40;;;;;;5012278;28;20423;-61
2022/11/19 10:03:50;;;;;;;27.90;17.03;;;5.20;88.50;;;;;;5012847;28;20525;-61
2022/11/19 10:06:28;;;;;;;26.07;16.97;;;5.20;88.50;;;;;;5029848;28;20238;-61
2022/11/19 10:09:04;;;;;;;29.17;16.73;;;5.20;88.70;;;;;;5028969;28;21026;-61
2022/11/19 10:11:45;;;;;;;28.33;16.13;;;5.20;88.80;;;;;;5035482;28;20429;-59
2022/11/19 10:14:14;;;;;;;29.50;17.17;;;5.20;89.10;;;;;;5011143;28;20425;-60
2022/11/19 10:17:06;;;;;;;27.70;16.73;;;5.20;89.20;;;;;;5027191;28;20449;-59
2022/11/19 10:20:02;;;;;;;24.47;15.50;;;5.20;89.40;;;;;;4713800;28;22300;-59
2022/11/19 10:22:38;;;;;;;24.13;13.93;;;5.20;89.50;;;;;;3651829;28;21247;-59
2022/11/19 10:25:10;;;;;;;28.67;15.33;;;5.20;89.70;;;;;;5011302;28;20438;-59
2022/11/19 10:27:38;;;;;;;24.33;14.30;;;5.20;89.70;;;;;;5011138;28;20473;-59
2022/11/19 10:30:16;;;;;;;22.70;14.30;;;5.20;89.80;;;;;;5017264;28;20424;-59
2022/11/19 10:32:52;;;;;;;25.40;15.10;;;5.10;89.70;;;;;;5006398;28;20461;-59
2022/11/19 10:35:22;;;;;;;22.93;12.83;;;5.00;89.10;;;;;;5003706;28;20426;-59
2022/11/19 10:37:57;;;;;;;25.20;13.70;;;5.00;89.30;;;;;;5028119;28;20529;-59
2022/11/19 10:40:25;;;;;;;21.17;12.40;;;4.90;89.60;;;;;;5011198;28;20441;-59
2022/11/19 10:43:07;;;;;;;21.93;13.50;;;4.90;90.10;;;;;;4995219;28;20442;-59
2022/11/19 10:45:32;;;;;;;23.37;12.73;;;4.90;90.40;;;;;;5011090;28;20493;-59
2022/11/19 10:48:25;;;;;;;23.93;13.47;;;5.00;90.50;;;;;;5025481;28;20525;-59
2022/11/19 10:50:51;;;;;;;18.03;11.60;;;4.90;90.30;;;;;;5024695;28;20666;-60
2022/11/19 10:53:24;;;;;;;21.23;12.37;;;4.90;90.40;;;;;;4993894;28;20488;-59
2022/11/19 10:55:53;;;;;;;19.97;12.40;;;4.90;90.30;;;;;;4998788;28;20477;-60
2022/11/19 10:58:24;;;;;;;21.40;12.07;;;4.90;90.60;;;;;;5010567;28;20434;-59
2022/11/19 11:00:54;;;;;;;24.70;12.20;;;4.90;90.90;;;;;;5017887;28;20498;-61
2022/11/19 11:03:28;;;;;;;22.57;13.63;;;4.90;90.60;;;;;;5014451;28;20433;-61
2022/11/19 11:06:01;;;;;;;22.27;11.70;;;4.80;90.10;;;;;;5014056;28;20506;-61
2022/11/19 11:08:27;;;;;;;20.43;11.87;;;4.80;90.70;;;;;;5033002;28;20433;-61
2022/11/19 11:10:53;;;;;;;17.80;11.23;;;4.80;90.70;;;;;;4997266;28;20431;-61
2022/11/19 11:16:45;;;;;;;16.57;10.37;;;4.70;90.20;;;;;;5001591;28;20223;-61
2022/11/19 11:19:21;;;;;;;17.53;11.37;;;4.70;90.70;;;;;;5014522;28;20478;-61
2022/11/19 11:21:52;;;;;;;19.07;11.20;;;4.60;90.50;;;;;;5003445;28;20420;-61
2022/11/19 11:24:18;;;;;;;18.30;10.60;;;4.70;90.90;;;;;;5015370;28;20494;-60
2022/11/19 11:26:44;;;;;;;15.37;10.87;;;4.80;91.10;;;;;;5015122;28;20466;-61
2022/11/19 11:29:13;;;;;;;17.07;11.33;;;4.80;91.10;;;;;;5015826;28;20427;-61
2022/11/19 11:31:41;;;;;;;17.47;10.50;;;4.80;91.10;;;;;;5029864;28;20194;-61
2022/11/19 11:34:38;;;;;;;17.13;9.80;;;4.80;91.20;;;;;;5014834;28;20422;-61
2022/11/19 11:37:05;;;;;;;17.67;10.00;;;4.80;91.30;;;;;;5015674;28;20430;-61
2022/11/19 11:39:36;;;;;;;14.73;9.90;;;4.80;91.30;;;;;;5012848;28;20435;-63
2022/11/19 11:42:02;;;;;;;17.37;11.13;;;4.80;91.20;;;;;;5012702;28;20972;-62
2022/11/19 11:44:32;;;;;;;16.00;10.40;;;4.90;91.50;;;;;;5013491;28;20446;-62
2022/11/19 11:47:01;;;;;;;16.87;10.27;;;4.90;91.60;;;;;;5006807;28;20553;-62
2022/11/19 11:49:36;;;;;;;15.80;10.23;;;4.90;91.50;;;;;;4434787;28;23283;-62
2022/11/19 11:52:12;;;;;;;16.53;11.00;;;4.90;91.50;;;;;;5031601;28;20429;-63
2022/11/19 11:55:11;;;;;;;15.87;10.23;;;5.00;91.70;;;;;;5030798;28;20426;-62
2022/11/19 11:57:50;;;;;;;16.93;9.40;;;5.00;91.70;;;;;;5035490;28;20426;-63
2022/11/19 12:00:34;;;;;;;18.17;10.50;;;5.10;91.90;;;;;;5014587;28;20430;-63
2022/11/19 12:03:06;;;;;;;18.90;11.27;;;5.00;91.50;;;;;;5004370;28;20526;-63
2022/11/19 12:06:01;;;;;;;15.80;10.67;;;5.10;91.60;;;;;;5027378;28;20419;-62
2022/11/19 12:08:51;;;;;;;15.03;9.57;;;5.10;91.70;;;;;;5030749;28;20486;-62
2022/11/19 12:14:46;;;;;;;13.43;9.43;;;5.10;91.60;;;;;;5013156;28;20487;-62
2022/11/19 12:17:37;;;;;;;16.93;10.27;;;5.00;91.30;;;;;;5023955;28;20439;-62
2022/11/19 12:20:57;;;;;;;16.97;9.43;;;5.00;91.10;;;;;;5030395;28;20471;-62
2022/11/19 12:23:46;;;;;;;17.53;10.40;;;4.90;91.10;;;;;;4991735;28;20506;-61
2022/11/19 12:26:17;;;;;;;15.33;9.80;;;5.00;91.30;;;;;;5010932;28;20463;-61
2022/11/19 12:29:04;;;;;;;17.43;10.93;;;5.00;91.20;;;;;;5029203;28;20439;-62
2022/11/19 12:32:06;;;;;;;20.23;10.87;;;5.00;91.50;;;;;;5008315;28;20877;-62
2022/11/19 12:34:41;;;;;;;17.60;11.23;;;5.00;91.30;;;;;;5011815;28;20454;-62
2022/11/19 12:37:28;;;;;;;19.83;10.03;;;5.00;91.50;;;;;;5027383;28;20442;-62
2022/11/19 12:40:33;;;;;;;16.57;10.50;;;5.00;91.20;;;;;;5013420;28;20517;-62
2022/11/19 12:43:27;;;;;;;20.60;10.57;;;5.00;91.60;;;;;;5012337;28;20544;-62
2022/11/19 12:46:08;;;;;;;15.43;10.77;;;5.00;91.20;;;;;;5010911;28;20445;-62
2022/11/19 12:49:01;;;;;;;18.63;10.97;;;5.10;91.50;;;;;;5013200;28;20476;-62
2022/11/19 12:51:51;;;;;;;16.63;10.80;;;5.00;91.30;;;;;;5004426;28;20419;-62
2022/11/19 12:54:43;;;;;;;17.97;10.97;;;5.00;90.90;;;;;;5029426;28;20938;-62
2022/11/19 12:57:27;;;;;;;15.50;9.37;;;5.00;90.80;;;;;;5009069;28;20423;-62
2022/11/19 13:00:15;;;;;;;18.73;10.80;;;4.90;90.80;;;;;;5010739;28;20436;-62
2022/11/19 13:02:46;;;;;;;16.30;10.07;;;4.90;91.00;;;;;;5012216;28;20430;-62
2022/11/19 13:05:26;;;;;;;16.73;10.00;;;4.90;91.10;;;;;;5013827;28;20496;-62
2022/11/19 13:08:01;;;;;;;16.47;9.77;;;4.90;91.30;;;;;;5008882;28;20459;-62
2022/11/19 13:10:41;;;;;;;16.43;10.43;;;5.00;91.50;;;;;;5009267;28;20431;-62
2022/11/19 13:13:10;;;;;;;13.67;8.70;;;5.00;91.60;;;;;;5027222;28;20526;-62
2022/11/19 13:15:51;;;;;;;16.20;10.03;;;5.00;91.60;;;;;;5012160;28;20427;-62
2022/11/19 13:18:19;;;;;;;16.23;9.03;;;5.10;91.80;;;;;;5011450;28;20462;-62
2022/11/19 13:20:54;;;;;;;18.13;9.47;;;5.00;91.70;;;;;;5012807;28;20435;-62